sensor_id;sensor_type;location;lat;lon;timestamp;pressure;altitude;pressure_sealevel;temperature;humidity
2401;BME280;1211;43.200;27.914;2023-01-29T00:01:31;101417.84;;;4.81;nan
2401;BME280;1211;43.200;27.914;2023-01-29T00:03:57;101416.19;;;4.80;nan
2401;BME280;1211;43.200;27.914;2023-01-29T00:06:26;101421.66;;;4.90;nan
2401;BME280;1211;43.200;27.914;2023-01-29T00:08:52;101409.13;;;4.89;nan
2401;BME280;1211;43.200;27.914;2023-01-29T00:11:19;101415.66;;;4.63;nan
2401;BME280;1211;43.200;27.914;2023-01-29T00:13:46;101415.13;;;4.71;nan
2401;BME280;1211;43.200;27.914;2023-01-29T00:16:12;101411.56;;;4.91;nan
2401;BME280;1211;43.200;27.914;2023-01-29T00:18:39;101411.84;;;4.94;nan
2401;BME280;1211;43.200;27.914;2023-01-29T00:21:07;101423.84;;;5.29;nan
2401;BME280;1211;43.200;27.914;2023-01-29T00:23:35;101419.44;;;4.52;nan
2401;BME280;1211;43.200;27.914;2023-01-29T00:26:02;101438.03;;;4.65;nan
2401;BME280;1211;43.200;27.914;2023-01-29T00:28:29;101429.31;;;4.88;nan
2401;BME280;1211;43.200;27.914;2023-01-29T00:30:55;101433.41;;;4.86;nan
2401;BME280;1211;43.200;27.914;2023-01-29T00:33:22;101422.22;;;4.92;nan
2401;BME280;1211;43.200;27.914;2023-01-29T00:35:49;101436.38;;;4.69;nan
2401;BME280;1211;43.200;27.914;2023-01-29T00:38:16;101425.75;;;4.78;nan
2401;BME280;1211;43.200;27.914;2023-01-29T00:40:44;101423.81;;;4.78;nan
2401;BME280;1211;43.200;27.914;2023-01-29T00:43:28;101429.28;;;4.58;nan
2401;BME280;1211;43.200;27.914;2023-01-29T00:46:12;101437.19;;;4.65;nan
2401;BME280;1211;43.200;27.914;2023-01-29T00:48:38;101428.19;;;4.74;nan
2401;BME280;1211;43.200;27.914;2023-01-29T00:51:05;101447.84;;;4.66;nan
2401;BME280;1211;43.200;27.914;2023-01-29T00:53:32;101441.53;;;4.50;nan
2401;BME280;1211;43.200;27.914;2023-01-29T00:56:00;101433.94;;;4.88;nan
2401;BME280;1211;43.200;27.914;2023-01-29T00:58:27;101430.41;;;4.92;nan
2401;BME280;1211;43.200;27.914;2023-01-29T01:00:59;101426.03;;;4.86;nan
2401;BME280;1211;43.200;27.914;2023-01-29T01:03:26;101436.38;;;4.69;nan
2401;BME280;1211;43.200;27.914;2023-01-29T01:06:01;101432.03;;;4.93;nan
2401;BME280;1211;43.200;27.914;2023-01-29T01:08:28;101439.66;;;4.71;nan
2401;BME280;1211;43.200;27.914;2023-01-29T01:11:13;101435.31;;;4.75;nan
2401;BME280;1211;43.200;27.914;2023-01-29T01:13:40;101432.56;;;4.70;nan
2401;BME280;1211;43.200;27.914;2023-01-29T01:16:08;101433.91;;;4.68;nan
2401;BME280;1211;43.200;27.914;2023-01-29T01:18:34;101423.84;;;4.88;nan
2401;BME280;1211;43.200;27.914;2023-01-29T01:21:02;101424.66;;;4.99;nan
2401;BME280;1211;43.200;27.914;2023-01-29T01:23:29;101427.13;;;4.80;nan
2401;BME280;1211;43.200;27.914;2023-01-29T01:25:55;101431.75;;;4.70;nan
2401;BME280;1211;43.200;27.914;2023-01-29T01:28:23;101431.50;;;4.81;nan
2401;BME280;1211;43.200;27.914;2023-01-29T01:30:50;101436.13;;;5.21;nan
2401;BME280;1211;43.200;27.914;2023-01-29T01:33:17;101442.41;;;4.86;nan
2401;BME280;1211;43.200;27.914;2023-01-29T01:35:44;101445.91;;;4.62;nan
2401;BME280;1211;43.200;27.914;2023-01-29T01:38:11;101449.75;;;4.91;nan
2401;BME280;1211;43.200;27.914;2023-01-29T01:40:42;101453.84;;;4.63;nan
2401;BME280;1211;43.200;27.914;2023-01-29T01:43:09;101456.88;;;4.82;nan
2401;BME280;1211;43.200;27.914;2023-01-29T01:45:38;101458.78;;;4.86;nan
2401;BME280;1211;43.200;27.914;2023-01-29T01:48:05;101456.59;;;4.88;nan
2401;BME280;1211;43.200;27.914;2023-01-29T01:50:37;101465.34;;;5.11;nan
2401;BME280;1211;43.200;27.914;2023-01-29T01:53:08;101452.19;;;4.52;nan
2401;BME280;1211;43.200;27.914;2023-01-29T01:55:35;101455.72;;;4.52;nan
2401;BME280;1211;43.200;27.914;2023-01-29T01:58:05;101469.94;;;4.75;nan
2401;BME280;1211;43.200;27.914;2023-01-29T02:00:34;101466.41;;;4.84;nan
2401;BME280;1211;43.200;27.914;2023-01-29T02:03:03;101463.97;;;5.13;nan
2401;BME280;1211;43.200;27.914;2023-01-29T02:05:48;101461.53;;;5.07;nan
2401;BME280;1211;43.200;27.914;2023-01-29T02:08:34;101468.09;;;5.01;nan
2401;BME280;1211;43.200;27.914;2023-01-29T02:11:20;101455.53;;;4.94;nan
2401;BME280;1211;43.200;27.914;2023-01-29T02:13:47;101461.19;;;4.57;nan
2401;BME280;1211;43.200;27.914;2023-01-29T02:16:17;101464.97;;;4.46;nan
2401;BME280;1211;43.200;27.914;2023-01-29T02:18:46;101466.41;;;4.74;nan
2401;BME280;1211;43.200;27.914;2023-01-29T02:29:26;101458.44;;;4.52;nan
2401;BME280;1211;43.200;27.914;2023-01-29T02:32:01;101462.56;;;4.65;nan
2401;BME280;1211;43.200;27.914;2023-01-29T02:34:36;101462.59;;;4.85;nan
2401;BME280;1211;43.200;27.914;2023-01-29T02:37:24;101469.38;;;4.57;nan
2401;BME280;1211;43.200;27.914;2023-01-29T02:39:53;101460.28;;;4.27;nan
2401;BME280;1211;43.200;27.914;2023-01-29T02:42:26;101469.63;;;4.56;nan
2401;BME280;1211;43.200;27.914;2023-01-29T02:44:57;101451.59;;;4.40;nan
2401;BME280;1211;43.200;27.914;2023-01-29T02:47:27;101455.50;;;4.79;nan
2401;BME280;1211;43.200;27.914;2023-01-29T02:49:57;101468.34;;;4.94;nan
2401;BME280;1211;43.200;27.914;2023-01-29T02:52:29;101473.16;;;4.46;nan
2401;BME280;1211;43.200;27.914;2023-01-29T02:55:01;101453.81;;;4.58;nan
2401;BME280;1211;43.200;27.914;2023-01-29T02:57:33;101449.56;;;4.00;nan
2401;BME280;1211;43.200;27.914;2023-01-29T03:00:03;101476.31;;;4.13;nan
2401;BME280;1211;43.200;27.914;2023-01-29T03:02:33;100948.84;;;0.94;nan
2401;BME280;1211;43.200;27.914;2023-01-29T03:05:03;101107.94;;;2.16;nan
2401;BME280;1211;43.200;27.914;2023-01-29T03:07:35;101478.13;;;4.60;nan
2401;BME280;1211;43.200;27.914;2023-01-29T03:10:09;101449.09;;;4.18;nan
2401;BME280;1211;43.200;27.914;2023-01-29T03:12:38;101464.13;;;4.36;nan
2401;BME280;1211;43.200;27.914;2023-01-29T03:15:08;101458.47;;;4.63;nan
2401;BME280;1211;43.200;27.914;2023-01-29T03:17:42;101478.38;;;4.58;nan
2401;BME280;1211;43.200;27.914;2023-01-29T03:20:12;101455.94;;;4.31;nan
2401;BME280;1211;43.200;27.914;2023-01-29T03:22:43;101460.81;;;4.24;nan
2401;BME280;1211;43.200;27.914;2023-01-29T03:25:10;101448.06;;;4.49;nan
2401;BME280;1211;43.200;27.914;2023-01-29T03:27:58;101450.53;;;4.51;nan
2401;BME280;1211;43.200;27.914;2023-01-29T03:30:44;101397.63;;;4.37;nan
2401;BME280;1211;43.200;27.914;2023-01-29T03:33:31;101438.75;;;4.30;nan
2401;BME280;1211;43.200;27.914;2023-01-29T03:36:03;101432.72;;;4.13;nan
2401;BME280;1211;43.200;27.914;2023-01-29T03:38:31;101431.34;;;4.15;nan
2401;BME280;1211;43.200;27.914;2023-01-29T03:41:00;101431.56;;;3.99;nan
2401;BME280;1211;43.200;27.914;2023-01-29T03:43:30;101437.84;;;4.04;nan
2401;BME280;1211;43.200;27.914;2023-01-29T03:46:02;101428.44;;;4.42;nan
2401;BME280;1211;43.200;27.914;2023-01-29T03:48:32;101422.69;;;4.34;nan
2401;BME280;1211;43.200;27.914;2023-01-29T03:51:02;101439.84;;;4.34;nan
2401;BME280;1211;43.200;27.914;2023-01-29T03:53:36;101409.28;;;4.22;nan
2401;BME280;1211;43.200;27.914;2023-01-29T03:56:10;101442.25;;;4.15;nan
2401;BME280;1211;43.200;27.914;2023-01-29T03:58:42;101456.47;;;4.28;nan
2401;BME280;1211;43.200;27.914;2023-01-29T04:01:15;101459.75;;;4.25;nan
2401;BME280;1211;43.200;27.914;2023-01-29T04:03:45;101466.84;;;4.26;nan
2401;BME280;1211;43.200;27.914;2023-01-29T04:06:15;101465.78;;;4.32;nan
2401;BME280;1211;43.200;27.914;2023-01-29T04:08:44;101460.63;;;4.50;nan
2401;BME280;1211;43.200;27.914;2023-01-29T04:11:14;101472.84;;;4.38;nan
2401;BME280;1211;43.200;27.914;2023-01-29T04:13:42;101495.19;;;4.30;nan
2401;BME280;1211;43.200;27.914;2023-01-29T04:16:12;101505.25;;;4.24;nan
2401;BME280;1211;43.200;27.914;2023-01-29T04:18:44;101494.84;;;4.16;nan
2401;BME280;1211;43.200;27.914;2023-01-29T04:21:11;101498.81;;;4.55;nan
2401;BME280;1211;43.200;27.914;2023-01-29T04:23:38;101514.72;;;4.06;nan
2401;BME280;1211;43.200;27.914;2023-01-29T04:26:09;101526.22;;;3.71;nan
2401;BME280;1211;43.200;27.914;2023-01-29T04:28:44;101515.38;;;4.29;nan
2401;BME280;1211;43.200;27.914;2023-01-29T04:31:13;101533.09;;;4.31;nan
2401;BME280;1211;43.200;27.914;2023-01-29T04:33:42;101542.28;;;4.82;nan
2401;BME280;1211;43.200;27.914;2023-01-29T04:36:16;101533.50;;;4.70;nan
2401;BME280;1211;43.200;27.914;2023-01-29T04:38:46;101541.41;;;4.04;nan
2401;BME280;1211;43.200;27.914;2023-01-29T04:41:19;101541.63;;;3.93;nan
2401;BME280;1211;43.200;27.914;2023-01-29T04:43:50;101537.16;;;4.24;nan
2401;BME280;1211;43.200;27.914;2023-01-29T04:46:23;101535.94;;;4.67;nan
2401;BME280;1211;43.200;27.914;2023-01-29T04:48:59;101535.63;;;4.53;nan
2401;BME280;1211;43.200;27.914;2023-01-29T04:51:33;101533.19;;;3.94;nan
2401;BME280;1211;43.200;27.914;2023-01-29T04:54:03;101526.88;;;4.41;nan
2401;BME280;1211;43.200;27.914;2023-01-29T04:56:32;101528.09;;;4.90;nan
2401;BME280;1211;43.200;27.914;2023-01-29T04:59:02;101545.59;;;5.10;nan
2401;BME280;1211;43.200;27.914;2023-01-29T05:01:31;101539.56;;;5.03;nan
2401;BME280;1211;43.200;27.914;2023-01-29T05:04:00;101545.28;;;4.13;nan
2401;BME280;1211;43.200;27.914;2023-01-29T05:06:27;101537.41;;;4.94;nan
2401;BME280;1211;43.200;27.914;2023-01-29T05:08:57;101550.50;;;5.03;nan
2401;BME280;1211;43.200;27.914;2023-01-29T05:11:24;101543.38;;;4.81;nan
2401;BME280;1211;43.200;27.914;2023-01-29T05:13:51;101548.13;;;4.44;nan
2401;BME280;1211;43.200;27.914;2023-01-29T05:16:19;101495.22;;;4.35;nan
2401;BME280;1211;43.200;27.914;2023-01-29T05:18:47;101560.97;;;3.91;nan
2401;BME280;1211;43.200;27.914;2023-01-29T05:21:14;101556.25;;;4.29;nan
2401;BME280;1211;43.200;27.914;2023-01-29T05:23:41;101562.97;;;4.73;nan
2401;BME280;1211;43.200;27.914;2023-01-29T05:26:18;101566.03;;;4.92;nan
2401;BME280;1211;43.200;27.914;2023-01-29T05:29:03;101578.81;;;3.72;nan
2401;BME280;1211;43.200;27.914;2023-01-29T05:31:29;101562.56;;;4.39;nan
2401;BME280;1211;43.200;27.914;2023-01-29T05:33:56;101573.53;;;4.49;nan
2401;BME280;1211;43.200;27.914;2023-01-29T05:36:23;101564.09;;;4.77;nan
2401;BME280;1211;43.200;27.914;2023-01-29T05:38:50;101561.06;;;4.69;nan
2401;BME280;1211;43.200;27.914;2023-01-29T05:41:19;101566.44;;;4.43;nan
2401;BME280;1211;43.200;27.914;2023-01-29T05:43:45;101578.84;;;4.81;nan
2401;BME280;1211;43.200;27.914;2023-01-29T05:46:12;101581.09;;;5.10;nan
2401;BME280;1211;43.200;27.914;2023-01-29T05:48:39;101578.09;;;5.26;nan
2401;BME280;1211;43.200;27.914;2023-01-29T05:51:05;101578.38;;;5.20;nan
2401;BME280;1211;43.200;27.914;2023-01-29T05:53:32;101588.19;;;5.16;nan
2401;BME280;1211;43.200;27.914;2023-01-29T05:55:59;101599.69;;;5.28;nan
2401;BME280;1211;43.200;27.914;2023-01-29T05:58:29;101039.47;;;1.30;nan
2401;BME280;1211;43.200;27.914;2023-01-29T06:00:55;101583.44;;;4.66;nan
2401;BME280;1211;43.200;27.914;2023-01-29T06:03:22;101583.53;;;4.34;nan
2401;BME280;1211;43.200;27.914;2023-01-29T06:05:49;101596.16;;;4.50;nan
2401;BME280;1211;43.200;27.914;2023-01-29T06:08:15;101604.03;;;3.94;nan
2401;BME280;1211;43.200;27.914;2023-01-29T06:10:43;101593.13;;;4.41;nan
2401;BME280;1211;43.200;27.914;2023-01-29T06:13:09;101601.00;;;5.00;nan
2401;BME280;1211;43.200;27.914;2023-01-29T06:15:39;101607.44;;;4.74;nan
2401;BME280;1211;43.200;27.914;2023-01-29T06:18:06;101607.69;;;4.67;nan
2401;BME280;1211;43.200;27.914;2023-01-29T06:20:33;101599.25;;;4.69;nan
2401;BME280;1211;43.200;27.914;2023-01-29T06:22:59;101603.44;;;5.02;nan
2401;BME280;1211;43.200;27.914;2023-01-29T06:25:26;101599.38;;;5.09;nan
2401;BME280;1211;43.200;27.914;2023-01-29T06:27:53;101599.13;;;5.16;nan
2401;BME280;1211;43.200;27.914;2023-01-29T06:30:20;101620.97;;;5.31;nan
2401;BME280;1211;43.200;27.914;2023-01-29T06:32:48;101600.22;;;4.37;nan
2401;BME280;1211;43.200;27.914;2023-01-29T06:35:15;101603.81;;;4.53;nan
2401;BME280;1211;43.200;27.914;2023-01-29T06:37:42;101613.03;;;5.09;nan
2401;BME280;1211;43.200;27.914;2023-01-29T06:40:09;101613.59;;;5.21;nan
2401;BME280;1211;43.200;27.914;2023-01-29T06:42:36;101626.44;;;5.26;nan
2401;BME280;1211;43.200;27.914;2023-01-29T06:45:03;101626.69;;;5.09;nan
2401;BME280;1211;43.200;27.914;2023-01-29T06:47:30;101624.47;;;5.01;nan
2401;BME280;1211;43.200;27.914;2023-01-29T06:49:58;101626.44;;;5.31;nan
2401;BME280;1211;43.200;27.914;2023-01-29T06:52:25;101623.72;;;5.26;nan
2401;BME280;1211;43.200;27.914;2023-01-29T06:54:53;101623.06;;;4.83;nan
2401;BME280;1211;43.200;27.914;2023-01-29T06:57:20;101626.69;;;5.24;nan
2401;BME280;1211;43.200;27.914;2023-01-29T06:59:47;101640.16;;;5.41;nan
2401;BME280;1211;43.200;27.914;2023-01-29T07:02:13;101636.84;;;5.39;nan
2401;BME280;1211;43.200;27.914;2023-01-29T07:04:40;101649.69;;;5.44;nan
2401;BME280;1211;43.200;27.914;2023-01-29T07:07:08;101653.50;;;5.32;nan
2401;BME280;1211;43.200;27.914;2023-01-29T07:09:39;101649.78;;;4.76;nan
2401;BME280;1211;43.200;27.914;2023-01-29T07:12:06;101648.91;;;5.63;nan
2401;BME280;1211;43.200;27.914;2023-01-29T07:14:33;101653.56;;;6.13;nan
2401;BME280;1211;43.200;27.914;2023-01-29T07:16:59;101649.44;;;5.40;nan
2401;BME280;1211;43.200;27.914;2023-01-29T07:19:26;101647.78;;;5.59;nan
2401;BME280;1211;43.200;27.914;2023-01-29T07:21:53;101653.81;;;5.71;nan
2401;BME280;1211;43.200;27.914;2023-01-29T07:24:21;101667.22;;;5.78;nan
2401;BME280;1211;43.200;27.914;2023-01-29T07:26:48;101668.09;;;5.99;nan
2401;BME280;1211;43.200;27.914;2023-01-29T07:29:15;101671.34;;;6.31;nan
2401;BME280;1211;43.200;27.914;2023-01-29T07:31:42;101674.25;;;5.33;nan
2401;BME280;1211;43.200;27.914;2023-01-29T07:34:09;101677.06;;;5.84;nan
2401;BME280;1211;43.200;27.914;2023-01-29T07:36:35;101682.31;;;6.16;nan
2401;BME280;1211;43.200;27.914;2023-01-29T07:39:02;101692.22;;;5.14;nan
2401;BME280;1211;43.200;27.914;2023-01-29T07:41:30;101689.91;;;5.78;nan
2401;BME280;1211;43.200;27.914;2023-01-29T07:43:57;101684.81;;;5.05;nan
2401;BME280;1211;43.200;27.914;2023-01-29T07:46:24;101647.69;;;5.09;nan
2401;BME280;1211;43.200;27.914;2023-01-29T07:48:50;101695.44;;;5.01;nan
2401;BME280;1211;43.200;27.914;2023-01-29T07:51:17;101701.56;;;5.28;nan
2401;BME280;1211;43.200;27.914;2023-01-29T07:53:45;101706.25;;;4.76;nan
2401;BME280;1211;43.200;27.914;2023-01-29T07:56:12;101700.03;;;4.90;nan
2401;BME280;1211;43.200;27.914;2023-01-29T07:58:40;101702.94;;;4.74;nan
2401;BME280;1211;43.200;27.914;2023-01-29T08:01:07;101691.34;;;5.04;nan
2401;BME280;1211;43.200;27.914;2023-01-29T08:03:34;101699.63;;;5.24;nan
2401;BME280;1211;43.200;27.914;2023-01-29T08:06:01;101711.75;;;5.68;nan
2401;BME280;1211;43.200;27.914;2023-01-29T08:08:28;101694.91;;;5.04;nan
2401;BME280;1211;43.200;27.914;2023-01-29T08:10:55;101695.84;;;5.35;nan
2401;BME280;1211;43.200;27.914;2023-01-29T08:13:21;101701.66;;;5.69;nan
2401;BME280;1211;43.200;27.914;2023-01-29T08:15:50;101691.63;;;5.02;nan
2401;BME280;1211;43.200;27.914;2023-01-29T08:18:17;101705.03;;;5.09;nan
2401;BME280;1211;43.200;27.914;2023-01-29T08:20:43;101697.78;;;5.39;nan
2401;BME280;1211;43.200;27.914;2023-01-29T08:23:12;101691.25;;;5.51;nan
2401;BME280;1211;43.200;27.914;2023-01-29T08:25:38;101716.66;;;5.71;nan
2401;BME280;1211;43.200;27.914;2023-01-29T08:28:05;101710.34;;;5.51;nan
2401;BME280;1211;43.200;27.914;2023-01-29T08:30:33;101693.22;;;5.91;nan
2401;BME280;1211;43.200;27.914;2023-01-29T08:33:02;101702.50;;;5.85;nan
2401;BME280;1211;43.200;27.914;2023-01-29T08:35:29;101700.75;;;5.38;nan
2401;BME280;1211;43.200;27.914;2023-01-29T08:37:56;101694.28;;;5.74;nan
2401;BME280;1211;43.200;27.914;2023-01-29T08:40:23;101696.16;;;5.59;nan
2401;BME280;1211;43.200;27.914;2023-01-29T08:42:50;101702.19;;;5.61;nan
2401;BME280;1211;43.200;27.914;2023-01-29T08:45:17;101679.81;;;5.99;nan
2401;BME280;1211;43.200;27.914;2023-01-29T08:47:44;101689.38;;;6.22;nan
2401;BME280;1211;43.200;27.914;2023-01-29T08:50:12;101690.78;;;6.09;nan
2401;BME280;1211;43.200;27.914;2023-01-29T08:52:39;101682.56;;;6.14;nan
2401;BME280;1211;43.200;27.914;2023-01-29T08:55:06;101696.78;;;5.91;nan
2401;BME280;1211;43.200;27.914;2023-01-29T08:57:34;101691.59;;;6.15;nan
2401;BME280;1211;43.200;27.914;2023-01-29T09:00:01;101688.88;;;6.15;nan
2401;BME280;1211;43.200;27.914;2023-01-29T09:02:28;101693.22;;;6.31;nan
2401;BME280;1211;43.200;27.914;2023-01-29T09:04:54;101708.81;;;6.31;nan
2401;BME280;1211;43.200;27.914;2023-01-29T09:07:22;101695.72;;;5.05;nan
2401;BME280;1211;43.200;27.914;2023-01-29T09:09:49;101691.81;;;5.73;nan
2401;BME280;1211;43.200;27.914;2023-01-29T09:12:16;101702.50;;;6.00;nan
2401;BME280;1211;43.200;27.914;2023-01-29T09:14:46;101696.13;;;5.49;nan
2401;BME280;1211;43.200;27.914;2023-01-29T09:17:13;101700.28;;;5.71;nan
2401;BME280;1211;43.200;27.914;2023-01-29T09:19:40;101701.78;;;5.12;nan
2401;BME280;1211;43.200;27.914;2023-01-29T09:22:07;101700.19;;;5.31;nan
2401;BME280;1211;43.200;27.914;2023-01-29T09:24:35;101699.69;;;5.49;nan
2401;BME280;1211;43.200;27.914;2023-01-29T09:27:02;101699.34;;;5.25;nan
2401;BME280;1211;43.200;27.914;2023-01-29T09:29:29;101691.22;;;4.73;nan
2401;BME280;1211;43.200;27.914;2023-01-29T09:31:56;101682.72;;;5.37;nan
2401;BME280;1211;43.200;27.914;2023-01-29T09:34:23;101686.66;;;5.87;nan
2401;BME280;1211;43.200;27.914;2023-01-29T09:36:50;101686.66;;;5.97;nan
2401;BME280;1211;43.200;27.914;2023-01-29T09:39:17;101692.69;;;6.09;nan
2401;BME280;1211;43.200;27.914;2023-01-29T09:41:49;101682.81;;;6.18;nan
2401;BME280;1211;43.200;27.914;2023-01-29T09:44:19;101681.44;;;5.80;nan
2401;BME280;1211;43.200;27.914;2023-01-29T09:46:49;101677.25;;;5.37;nan
2401;BME280;1211;43.200;27.914;2023-01-29T09:49:20;101671.09;;;5.87;nan
2401;BME280;1211;43.200;27.914;2023-01-29T09:51:50;101689.41;;;6.12;nan
2401;BME280;1211;43.200;27.914;2023-01-29T09:54:20;101679.50;;;5.55;nan
2401;BME280;1211;43.200;27.914;2023-01-29T09:56:51;101674.63;;;5.88;nan
2401;BME280;1211;43.200;27.914;2023-01-29T09:59:21;101665.31;;;5.73;nan
2401;BME280;1211;43.200;27.914;2023-01-29T10:01:51;101678.41;;;5.71;nan
2401;BME280;1211;43.200;27.914;2023-01-29T10:04:35;101675.72;;;5.87;nan
2401;BME280;1211;43.200;27.914;2023-01-29T10:07:10;101675.19;;;6.00;nan
2401;BME280;1211;43.200;27.914;2023-01-29T10:09:50;101683.94;;;6.27;nan
2401;BME280;1211;43.200;27.914;2023-01-29T10:12:28;101672.44;;;6.15;nan
2401;BME280;1211;43.200;27.914;2023-01-29T10:15:02;101667.50;;;6.12;nan
2401;BME280;1211;43.200;27.914;2023-01-29T10:17:37;101676.22;;;6.39;nan
2401;BME280;1211;43.200;27.914;2023-01-29T10:22:55;101668.56;;;6.46;nan
2401;BME280;1211;43.200;27.914;2023-01-29T10:25:25;101677.34;;;6.38;nan
2401;BME280;1211;43.200;27.914;2023-01-29T10:27:55;101676.56;;;6.07;nan
2401;BME280;1211;43.200;27.914;2023-01-29T10:30:27;101668.25;;;6.63;nan
2401;BME280;1211;43.200;27.914;2023-01-29T10:32:56;101672.97;;;6.37;nan
2401;BME280;1211;43.200;27.914;2023-01-29T10:35:27;101672.72;;;6.08;nan
2401;BME280;1211;43.200;27.914;2023-01-29T10:37:55;101671.09;;;5.92;nan
2401;BME280;1211;43.200;27.914;2023-01-29T10:40:26;101670.81;;;5.99;nan
2401;BME280;1211;43.200;27.914;2023-01-29T10:42:57;101666.91;;;6.45;nan
2401;BME280;1211;43.200;27.914;2023-01-29T10:45:28;101658.69;;;6.45;nan
2401;BME280;1211;43.200;27.914;2023-01-29T10:48:08;101660.00;;;6.68;nan
2401;BME280;1211;43.200;27.914;2023-01-29T10:50:46;101650.50;;;6.55;nan
2401;BME280;1211;43.200;27.914;2023-01-29T10:55:58;101641.78;;;6.23;nan
2401;BME280;1211;43.200;27.914;2023-01-29T10:58:31;101643.94;;;6.56;nan
2401;BME280;1211;43.200;27.914;2023-01-29T11:00:59;101647.06;;;6.94;nan
2401;BME280;1211;43.200;27.914;2023-01-29T11:03:30;101650.75;;;6.54;nan
2401;BME280;1211;43.200;27.914;2023-01-29T11:06:01;101642.34;;;6.30;nan
2401;BME280;1211;43.200;27.914;2023-01-29T11:08:32;101634.72;;;5.82;nan
2401;BME280;1211;43.200;27.914;2023-01-29T11:11:05;101656.00;;;6.30;nan
2401;BME280;1211;43.200;27.914;2023-01-29T11:13:37;101651.34;;;6.31;nan
2401;BME280;1211;43.200;27.914;2023-01-29T11:16:05;101642.81;;;6.52;nan
2401;BME280;1211;43.200;27.914;2023-01-29T11:18:49;101640.47;;;5.90;nan
2401;BME280;1211;43.200;27.914;2023-01-29T11:21:16;101643.47;;;6.04;nan
2401;BME280;1211;43.200;27.914;2023-01-29T11:23:43;101647.28;;;6.08;nan
2401;BME280;1211;43.200;27.914;2023-01-29T11:26:11;101629.25;;;5.92;nan
2401;BME280;1211;43.200;27.914;2023-01-29T11:28:40;101638.50;;;6.31;nan
2401;BME280;1211;43.200;27.914;2023-01-29T11:31:17;101635.22;;;6.29;nan
2401;BME280;1211;43.200;27.914;2023-01-29T11:33:45;101626.41;;;6.47;nan
2401;BME280;1211;43.200;27.914;2023-01-29T11:36:27;101618.56;;;6.05;nan
2401;BME280;1211;43.200;27.914;2023-01-29T11:39:12;101629.22;;;6.22;nan
2401;BME280;1211;43.200;27.914;2023-01-29T11:41:44;101632.47;;;6.44;nan
2401;BME280;1211;43.200;27.914;2023-01-29T11:44:21;101637.00;;;6.74;nan
2401;BME280;1211;43.200;27.914;2023-01-29T11:46:52;101637.47;;;5.97;nan
2401;BME280;1211;43.200;27.914;2023-01-29T11:49:21;101633.56;;;6.28;nan
2401;BME280;1211;43.200;27.914;2023-01-29T11:51:50;101639.09;;;6.03;nan
2401;BME280;1211;43.200;27.914;2023-01-29T11:54:17;101638.00;;;6.14;nan
2401;BME280;1211;43.200;27.914;2023-01-29T11:56:45;101631.44;;;6.10;nan
2401;BME280;1211;43.200;27.914;2023-01-29T11:59:20;101633.00;;;6.46;nan
2401;BME280;1211;43.200;27.914;2023-01-29T12:01:52;101626.97;;;6.49;nan
2401;BME280;1211;43.200;27.914;2023-01-29T12:04:21;101626.19;;;7.08;nan
2401;BME280;1211;43.200;27.914;2023-01-29T12:06:49;101631.44;;;6.94;nan
2401;BME280;1211;43.200;27.914;2023-01-29T12:09:18;101633.91;;;6.96;nan
2401;BME280;1211;43.200;27.914;2023-01-29T12:11:45;101620.19;;;7.45;nan
2401;BME280;1211;43.200;27.914;2023-01-29T12:14:23;101629.81;;;7.42;nan
2401;BME280;1211;43.200;27.914;2023-01-29T12:16:53;101655.72;;;7.16;nan
2401;BME280;1211;43.200;27.914;2023-01-29T12:19:24;101647.25;;;7.13;nan
2401;BME280;1211;43.200;27.914;2023-01-29T12:21:54;101578.81;;;6.48;nan
2401;BME280;1211;43.200;27.914;2023-01-29T12:24:30;101637.69;;;7.05;nan
2401;BME280;1211;43.200;27.914;2023-01-29T12:27:02;101621.63;;;6.88;nan
2401;BME280;1211;43.200;27.914;2023-01-29T12:29:35;101640.00;;;6.83;nan
2401;BME280;1211;43.200;27.914;2023-01-29T12:32:10;101638.81;;;6.99;nan
2401;BME280;1211;43.200;27.914;2023-01-29T12:34:42;101640.00;;;6.78;nan
2401;BME280;1211;43.200;27.914;2023-01-29T12:37:12;101634.09;;;6.50;nan
2401;BME280;1211;43.200;27.914;2023-01-29T12:39:43;101634.66;;;6.42;nan
2401;BME280;1211;43.200;27.914;2023-01-29T12:42:11;101643.06;;;6.66;nan
2401;BME280;1211;43.200;27.914;2023-01-29T12:44:41;101624.56;;;6.33;nan
2401;BME280;1211;43.200;27.914;2023-01-29T12:47:13;101639.34;;;6.32;nan
2401;BME280;1211;43.200;27.914;2023-01-29T12:49:41;101632.19;;;6.36;nan
2401;BME280;1211;43.200;27.914;2023-01-29T12:52:11;101644.84;;;5.91;nan
2401;BME280;1211;43.200;27.914;2023-01-29T12:54:41;101646.75;;;6.01;nan
2401;BME280;1211;43.200;27.914;2023-01-29T12:57:14;101659.03;;;5.93;nan
2401;BME280;1211;43.200;27.914;2023-01-29T12:59:44;101637.97;;;5.58;nan
2401;BME280;1211;43.200;27.914;2023-01-29T13:02:17;101647.25;;;5.62;nan
2401;BME280;1211;43.200;27.914;2023-01-29T13:04:47;101657.66;;;5.80;nan
2401;BME280;1211;43.200;27.914;2023-01-29T13:07:17;101649.72;;;5.64;nan
2401;BME280;1211;43.200;27.914;2023-01-29T13:09:48;101651.91;;;5.82;nan
2401;BME280;1211;43.200;27.914;2023-01-29T13:12:16;101650.56;;;5.74;nan
2401;BME280;1211;43.200;27.914;2023-01-29T13:14:45;101662.00;;;5.66;nan
2401;BME280;1211;43.200;27.914;2023-01-29T13:17:14;101675.97;;;5.70;nan
2401;BME280;1211;43.200;27.914;2023-01-29T13:19:45;101663.72;;;5.93;nan
2401;BME280;1211;43.200;27.914;2023-01-29T13:22:16;101661.50;;;6.05;nan
2401;BME280;1211;43.200;27.914;2023-01-29T13:24:44;101659.84;;;5.84;nan
2401;BME280;1211;43.200;27.914;2023-01-29T13:27:18;101670.53;;;6.00;nan
2401;BME280;1211;43.200;27.914;2023-01-29T13:29:45;101672.97;;;5.82;nan
2401;BME280;1211;43.200;27.914;2023-01-29T13:32:17;101673.78;;;5.62;nan
2401;BME280;1211;43.200;27.914;2023-01-29T13:34:46;101678.16;;;5.78;nan
2401;BME280;1211;43.200;27.914;2023-01-29T13:37:16;101683.59;;;5.58;nan
2401;BME280;1211;43.200;27.914;2023-01-29T13:39:45;101678.41;;;5.71;nan
2401;BME280;1211;43.200;27.914;2023-01-29T13:42:14;101696.53;;;5.93;nan
2401;BME280;1211;43.200;27.914;2023-01-29T13:44:44;101695.69;;;5.97;nan
2401;BME280;1211;43.200;27.914;2023-01-29T13:47:19;101682.81;;;5.88;nan
2401;BME280;1211;43.200;27.914;2023-01-29T13:49:53;101690.75;;;6.25;nan
2401;BME280;1211;43.200;27.914;2023-01-29T13:52:33;101693.75;;;6.28;nan
2401;BME280;1211;43.200;27.914;2023-01-29T13:55:02;101683.38;;;6.30;nan
2401;BME280;1211;43.200;27.914;2023-01-29T13:57:34;101680.59;;;6.40;nan
2401;BME280;1211;43.200;27.914;2023-01-29T14:00:02;101689.94;;;6.09;nan